Weather at Munson Medical Center Heliport

Public forecast

Using degrees Fahrenheit for public forecast. Weather courtesy of forecast.io.

Closest aviation weather report (METAR) to Munson Medical Center Heliport

Closest report is Cherry Capital Airport, 2.9 nm (5.3 km) ESE. Retrieved 2022/06/30 09:53 UTC (39 minutes ago):

KTVC 300953Z AUTO 19007KT 10SM CLR 20/14 A3001 RMK AO2 SLP160 T02000139

Closest aviation forecast (TAF) to Munson Medical Center Heliport

Closest forecast is Cherry Capital Airport, 2.9 nm (5.3 km) ESE. Retrieved 2022/06/30 06:22 UTC (4 hours ago):

TAF KTVC 300520Z 3006/0106 VRB03KT P6SM SCT250 FM300900 18009KT P6SM BKN200 WS020/23040KT FM301200 20011G22KT P6SM BKN200 WS020/23040KT FM301400 21015G29KT P6SM SCT250 FM010300 22010G21KT 6SM -SHRA BR BKN120 WS020/24040KT